sensor_id;sensor_type;location;lat;lon;timestamp;P1;durP1;ratioP1;P2;durP2;ratioP2
79646;SDS011;69119;41.718;21.786;2023-07-09T00:00:18;10.60;;;5.72;;
79646;SDS011;69119;41.718;21.786;2023-07-09T00:02:44;10.48;;;5.78;;
79646;SDS011;69119;41.718;21.786;2023-07-09T00:07:37;12.48;;;5.50;;
79646;SDS011;69119;41.718;21.786;2023-07-09T00:10:03;10.73;;;5.45;;
79646;SDS011;69119;41.718;21.786;2023-07-09T00:12:29;12.48;;;5.90;;
79646;SDS011;69119;41.718;21.786;2023-07-09T00:14:55;10.15;;;5.95;;
79646;SDS011;69119;41.718;21.786;2023-07-09T00:17:32;13.10;;;6.93;;
79646;SDS011;69119;41.718;21.786;2023-07-09T00:19:59;9.77;;;5.97;;
79646;SDS011;69119;41.718;21.786;2023-07-09T00:22:25;10.07;;;5.95;;
79646;SDS011;69119;41.718;21.786;2023-07-09T00:24:52;11.60;;;6.30;;
79646;SDS011;69119;41.718;21.786;2023-07-09T00:27:22;11.80;;;5.47;;
79646;SDS011;69119;41.718;21.786;2023-07-09T00:29:49;11.30;;;6.00;;
79646;SDS011;69119;41.718;21.786;2023-07-09T00:32:18;10.45;;;5.85;;
79646;SDS011;69119;41.718;21.786;2023-07-09T00:34:45;11.23;;;6.18;;
79646;SDS011;69119;41.718;21.786;2023-07-09T00:37:16;9.77;;;5.57;;
79646;SDS011;69119;41.718;21.786;2023-07-09T00:39:43;9.45;;;5.50;;
79646;SDS011;69119;41.718;21.786;2023-07-09T00:42:16;10.48;;;5.70;;
79646;SDS011;69119;41.718;21.786;2023-07-09T00:44:43;12.80;;;7.03;;
79646;SDS011;69119;41.718;21.786;2023-07-09T00:50:15;10.75;;;5.78;;
79646;SDS011;69119;41.718;21.786;2023-07-09T00:52:40;9.35;;;5.43;;
79646;SDS011;69119;41.718;21.786;2023-07-09T00:55:11;11.50;;;5.97;;
79646;SDS011;69119;41.718;21.786;2023-07-09T00:57:39;11.93;;;6.35;;
79646;SDS011;69119;41.718;21.786;2023-07-09T01:00:09;10.60;;;6.00;;
79646;SDS011;69119;41.718;21.786;2023-07-09T01:02:38;10.05;;;5.95;;
79646;SDS011;69119;41.718;21.786;2023-07-09T01:05:05;11.63;;;6.82;;
79646;SDS011;69119;41.718;21.786;2023-07-09T01:07:31;12.55;;;6.85;;
79646;SDS011;69119;41.718;21.786;2023-07-09T01:09:57;11.50;;;8.52;;
79646;SDS011;69119;41.718;21.786;2023-07-09T01:12:23;10.68;;;6.57;;
79646;SDS011;69119;41.718;21.786;2023-07-09T01:14:49;17.38;;;7.10;;
79646;SDS011;69119;41.718;21.786;2023-07-09T01:17:17;10.30;;;5.85;;
79646;SDS011;69119;41.718;21.786;2023-07-09T01:19:44;10.75;;;6.65;;
79646;SDS011;69119;41.718;21.786;2023-07-09T01:22:15;12.82;;;6.05;;
79646;SDS011;69119;41.718;21.786;2023-07-09T01:27:19;12.23;;;7.15;;
79646;SDS011;69119;41.718;21.786;2023-07-09T01:29:46;10.43;;;6.60;;
79646;SDS011;69119;41.718;21.786;2023-07-09T01:32:14;14.48;;;6.57;;
79646;SDS011;69119;41.718;21.786;2023-07-09T01:34:42;10.70;;;5.65;;
79646;SDS011;69119;41.718;21.786;2023-07-09T01:37:09;10.93;;;6.47;;
79646;SDS011;69119;41.718;21.786;2023-07-09T01:39:35;8.98;;;5.75;;
79646;SDS011;69119;41.718;21.786;2023-07-09T01:42:01;10.90;;;6.30;;
79646;SDS011;69119;41.718;21.786;2023-07-09T01:44:27;11.10;;;6.25;;
79646;SDS011;69119;41.718;21.786;2023-07-09T01:46:54;10.80;;;5.97;;
79646;SDS011;69119;41.718;21.786;2023-07-09T01:49:20;11.55;;;7.95;;
79646;SDS011;69119;41.718;21.786;2023-07-09T01:51:47;10.23;;;5.70;;
79646;SDS011;69119;41.718;21.786;2023-07-09T01:54:14;9.77;;;6.18;;
79646;SDS011;69119;41.718;21.786;2023-07-09T01:56:41;10.30;;;5.28;;
79646;SDS011;69119;41.718;21.786;2023-07-09T01:59:07;9.93;;;6.05;;
79646;SDS011;69119;41.718;21.786;2023-07-09T02:01:33;10.00;;;5.40;;
79646;SDS011;69119;41.718;21.786;2023-07-09T02:04:02;11.05;;;4.90;;
79646;SDS011;69119;41.718;21.786;2023-07-09T02:08:56;9.43;;;4.75;;
79646;SDS011;69119;41.718;21.786;2023-07-09T02:13:49;10.20;;;5.35;;
79646;SDS011;69119;41.718;21.786;2023-07-09T02:16:15;9.05;;;5.38;;
79646;SDS011;69119;41.718;21.786;2023-07-09T02:18:41;10.02;;;6.05;;
79646;SDS011;69119;41.718;21.786;2023-07-09T02:21:07;11.50;;;6.00;;
79646;SDS011;69119;41.718;21.786;2023-07-09T02:23:33;9.27;;;5.15;;
79646;SDS011;69119;41.718;21.786;2023-07-09T02:25:59;8.80;;;5.18;;
79646;SDS011;69119;41.718;21.786;2023-07-09T02:28:25;11.05;;;5.45;;
79646;SDS011;69119;41.718;21.786;2023-07-09T02:30:51;9.75;;;5.22;;
79646;SDS011;69119;41.718;21.786;2023-07-09T02:33:18;10.75;;;5.70;;
79646;SDS011;69119;41.718;21.786;2023-07-09T02:35:45;11.15;;;6.30;;
79646;SDS011;69119;41.718;21.786;2023-07-09T02:38:11;10.05;;;5.13;;
79646;SDS011;69119;41.718;21.786;2023-07-09T02:40:38;9.32;;;5.28;;
79646;SDS011;69119;41.718;21.786;2023-07-09T02:45:35;8.43;;;4.88;;
79646;SDS011;69119;41.718;21.786;2023-07-09T02:48:01;11.98;;;5.07;;
79646;SDS011;69119;41.718;21.786;2023-07-09T02:50:27;9.07;;;5.32;;
79646;SDS011;69119;41.718;21.786;2023-07-09T02:52:53;9.55;;;5.40;;
79646;SDS011;69119;41.718;21.786;2023-07-09T02:55:19;12.38;;;6.00;;
79646;SDS011;69119;41.718;21.786;2023-07-09T02:57:45;10.57;;;5.90;;
79646;SDS011;69119;41.718;21.786;2023-07-09T03:00:11;10.05;;;6.53;;
79646;SDS011;69119;41.718;21.786;2023-07-09T03:02:37;13.98;;;6.20;;
79646;SDS011;69119;41.718;21.786;2023-07-09T03:05:03;11.60;;;6.80;;
79646;SDS011;69119;41.718;21.786;2023-07-09T03:07:30;9.65;;;5.88;;
79646;SDS011;69119;41.718;21.786;2023-07-09T03:09:56;11.05;;;5.60;;
79646;SDS011;69119;41.718;21.786;2023-07-09T03:12:22;9.63;;;5.25;;
79646;SDS011;69119;41.718;21.786;2023-07-09T03:14:48;12.52;;;6.20;;
79646;SDS011;69119;41.718;21.786;2023-07-09T03:17:14;9.88;;;6.15;;
79646;SDS011;69119;41.718;21.786;2023-07-09T03:19:40;10.55;;;7.13;;
79646;SDS011;69119;41.718;21.786;2023-07-09T03:22:07;9.88;;;6.13;;
79646;SDS011;69119;41.718;21.786;2023-07-09T03:24:33;11.57;;;6.45;;
79646;SDS011;69119;41.718;21.786;2023-07-09T03:26:59;10.68;;;6.53;;
79646;SDS011;69119;41.718;21.786;2023-07-09T03:29:25;11.60;;;6.72;;
79646;SDS011;69119;41.718;21.786;2023-07-09T03:31:51;10.43;;;7.00;;
79646;SDS011;69119;41.718;21.786;2023-07-09T03:34:17;10.25;;;7.35;;
79646;SDS011;69119;41.718;21.786;2023-07-09T03:36:44;13.45;;;7.03;;
79646;SDS011;69119;41.718;21.786;2023-07-09T03:39:10;11.30;;;6.47;;
79646;SDS011;69119;41.718;21.786;2023-07-09T03:41:36;11.43;;;7.30;;
79646;SDS011;69119;41.718;21.786;2023-07-09T03:44:02;11.30;;;9.07;;
79646;SDS011;69119;41.718;21.786;2023-07-09T03:46:28;10.25;;;6.70;;
79646;SDS011;69119;41.718;21.786;2023-07-09T03:48:54;11.52;;;6.38;;
79646;SDS011;69119;41.718;21.786;2023-07-09T03:51:20;9.82;;;6.47;;
79646;SDS011;69119;41.718;21.786;2023-07-09T03:53:47;11.55;;;7.00;;
79646;SDS011;69119;41.718;21.786;2023-07-09T03:56:13;10.77;;;6.28;;
79646;SDS011;69119;41.718;21.786;2023-07-09T03:58:39;11.50;;;6.88;;
79646;SDS011;69119;41.718;21.786;2023-07-09T04:01:05;10.77;;;6.55;;
79646;SDS011;69119;41.718;21.786;2023-07-09T04:03:31;10.30;;;6.40;;
79646;SDS011;69119;41.718;21.786;2023-07-09T04:05:57;10.60;;;6.63;;
79646;SDS011;69119;41.718;21.786;2023-07-09T04:08:23;9.32;;;6.63;;
79646;SDS011;69119;41.718;21.786;2023-07-09T04:10:52;10.82;;;6.32;;
79646;SDS011;69119;41.718;21.786;2023-07-09T04:13:18;12.27;;;7.55;;
79646;SDS011;69119;41.718;21.786;2023-07-09T04:15:44;14.02;;;7.00;;
79646;SDS011;69119;41.718;21.786;2023-07-09T04:18:10;11.00;;;6.53;;
79646;SDS011;69119;41.718;21.786;2023-07-09T04:20:36;10.63;;;6.57;;
79646;SDS011;69119;41.718;21.786;2023-07-09T04:23:02;11.68;;;7.22;;
79646;SDS011;69119;41.718;21.786;2023-07-09T04:25:29;10.13;;;6.57;;
79646;SDS011;69119;41.718;21.786;2023-07-09T04:27:55;10.60;;;5.55;;
79646;SDS011;69119;41.718;21.786;2023-07-09T04:30:21;8.90;;;5.75;;
79646;SDS011;69119;41.718;21.786;2023-07-09T04:32:47;10.32;;;6.57;;
79646;SDS011;69119;41.718;21.786;2023-07-09T04:35:14;11.48;;;6.40;;
79646;SDS011;69119;41.718;21.786;2023-07-09T04:37:40;10.75;;;5.95;;
79646;SDS011;69119;41.718;21.786;2023-07-09T04:40:06;11.70;;;5.60;;
79646;SDS011;69119;41.718;21.786;2023-07-09T04:42:35;11.50;;;6.20;;
79646;SDS011;69119;41.718;21.786;2023-07-09T04:45:01;10.13;;;6.10;;
79646;SDS011;69119;41.718;21.786;2023-07-09T04:47:27;10.70;;;6.95;;
79646;SDS011;69119;41.718;21.786;2023-07-09T04:49:53;9.82;;;5.95;;
79646;SDS011;69119;41.718;21.786;2023-07-09T04:52:19;10.63;;;6.28;;
79646;SDS011;69119;41.718;21.786;2023-07-09T04:54:47;11.00;;;6.57;;
79646;SDS011;69119;41.718;21.786;2023-07-09T04:57:15;9.20;;;6.30;;
79646;SDS011;69119;41.718;21.786;2023-07-09T05:02:07;9.73;;;5.90;;
79646;SDS011;69119;41.718;21.786;2023-07-09T05:04:33;10.75;;;6.22;;
79646;SDS011;69119;41.718;21.786;2023-07-09T05:06:59;9.20;;;5.60;;
79646;SDS011;69119;41.718;21.786;2023-07-09T05:09:25;8.43;;;5.28;;
79646;SDS011;69119;41.718;21.786;2023-07-09T05:11:52;10.50;;;5.18;;
79646;SDS011;69119;41.718;21.786;2023-07-09T05:14:18;9.02;;;5.10;;
79646;SDS011;69119;41.718;21.786;2023-07-09T05:16:44;10.82;;;5.55;;
79646;SDS011;69119;41.718;21.786;2023-07-09T05:19:13;10.88;;;4.38;;
79646;SDS011;69119;41.718;21.786;2023-07-09T05:24:05;8.90;;;6.03;;
79646;SDS011;69119;41.718;21.786;2023-07-09T05:28:57;9.25;;;5.28;;
79646;SDS011;69119;41.718;21.786;2023-07-09T05:31:24;9.90;;;5.57;;
79646;SDS011;69119;41.718;21.786;2023-07-09T05:36:16;9.82;;;4.97;;
79646;SDS011;69119;41.718;21.786;2023-07-09T05:38:43;9.27;;;5.00;;
79646;SDS011;69119;41.718;21.786;2023-07-09T05:41:11;9.50;;;4.95;;
79646;SDS011;69119;41.718;21.786;2023-07-09T05:43:37;7.78;;;4.70;;
79646;SDS011;69119;41.718;21.786;2023-07-09T05:46:04;8.50;;;4.65;;
79646;SDS011;69119;41.718;21.786;2023-07-09T05:48:30;8.45;;;4.68;;
79646;SDS011;69119;41.718;21.786;2023-07-09T05:50:56;9.60;;;5.72;;
79646;SDS011;69119;41.718;21.786;2023-07-09T05:53:23;11.52;;;6.35;;
79646;SDS011;69119;41.718;21.786;2023-07-09T05:55:52;8.85;;;5.57;;
79646;SDS011;69119;41.718;21.786;2023-07-09T05:58:19;9.23;;;4.28;;
79646;SDS011;69119;41.718;21.786;2023-07-09T06:00:45;9.13;;;4.65;;
79646;SDS011;69119;41.718;21.786;2023-07-09T06:03:11;9.00;;;4.43;;
79646;SDS011;69119;41.718;21.786;2023-07-09T06:05:37;9.60;;;4.88;;
79646;SDS011;69119;41.718;21.786;2023-07-09T06:08:03;9.05;;;5.07;;
79646;SDS011;69119;41.718;21.786;2023-07-09T06:10:30;8.23;;;4.88;;
79646;SDS011;69119;41.718;21.786;2023-07-09T06:12:56;9.48;;;4.97;;
79646;SDS011;69119;41.718;21.786;2023-07-09T06:18:13;9.07;;;5.15;;
79646;SDS011;69119;41.718;21.786;2023-07-09T06:20:40;8.80;;;5.10;;
79646;SDS011;69119;41.718;21.786;2023-07-09T06:23:06;10.43;;;4.95;;
79646;SDS011;69119;41.718;21.786;2023-07-09T06:25:32;9.32;;;5.00;;
79646;SDS011;69119;41.718;21.786;2023-07-09T06:27:58;8.48;;;5.10;;
79646;SDS011;69119;41.718;21.786;2023-07-09T06:30:25;10.05;;;4.95;;
79646;SDS011;69119;41.718;21.786;2023-07-09T06:32:51;9.30;;;4.50;;
79646;SDS011;69119;41.718;21.786;2023-07-09T06:35:17;8.68;;;5.60;;
79646;SDS011;69119;41.718;21.786;2023-07-09T06:37:43;10.93;;;4.80;;
79646;SDS011;69119;41.718;21.786;2023-07-09T06:40:09;13.80;;;5.10;;
79646;SDS011;69119;41.718;21.786;2023-07-09T06:42:35;9.68;;;5.57;;
79646;SDS011;69119;41.718;21.786;2023-07-09T06:45:01;8.20;;;4.40;;
79646;SDS011;69119;41.718;21.786;2023-07-09T06:47:28;11.05;;;5.75;;
79646;SDS011;69119;41.718;21.786;2023-07-09T06:49:54;8.57;;;4.43;;
79646;SDS011;69119;41.718;21.786;2023-07-09T06:52:20;8.40;;;4.55;;
79646;SDS011;69119;41.718;21.786;2023-07-09T06:54:46;9.38;;;5.13;;
79646;SDS011;69119;41.718;21.786;2023-07-09T06:57:14;9.00;;;4.93;;
79646;SDS011;69119;41.718;21.786;2023-07-09T06:59:40;10.35;;;4.88;;
79646;SDS011;69119;41.718;21.786;2023-07-09T07:02:07;8.23;;;5.05;;
79646;SDS011;69119;41.718;21.786;2023-07-09T07:04:33;10.10;;;5.10;;
79646;SDS011;69119;41.718;21.786;2023-07-09T07:06:59;7.93;;;4.75;;
79646;SDS011;69119;41.718;21.786;2023-07-09T07:09:25;8.90;;;5.00;;
79646;SDS011;69119;41.718;21.786;2023-07-09T07:11:51;6.97;;;4.10;;
79646;SDS011;69119;41.718;21.786;2023-07-09T07:14:17;8.80;;;4.78;;
79646;SDS011;69119;41.718;21.786;2023-07-09T07:16:43;8.15;;;5.00;;
79646;SDS011;69119;41.718;21.786;2023-07-09T07:19:09;7.22;;;4.47;;
79646;SDS011;69119;41.718;21.786;2023-07-09T07:21:35;7.55;;;4.00;;
79646;SDS011;69119;41.718;21.786;2023-07-09T07:24:02;7.85;;;3.83;;
79646;SDS011;69119;41.718;21.786;2023-07-09T07:26:28;7.30;;;3.83;;
79646;SDS011;69119;41.718;21.786;2023-07-09T07:28:54;9.25;;;4.28;;
79646;SDS011;69119;41.718;21.786;2023-07-09T07:31:20;9.13;;;3.55;;
79646;SDS011;69119;41.718;21.786;2023-07-09T07:33:46;7.40;;;4.43;;
79646;SDS011;69119;41.718;21.786;2023-07-09T07:36:13;11.93;;;5.03;;
79646;SDS011;69119;41.718;21.786;2023-07-09T07:38:39;8.82;;;4.88;;
79646;SDS011;69119;41.718;21.786;2023-07-09T07:41:05;10.00;;;4.60;;
79646;SDS011;69119;41.718;21.786;2023-07-09T07:43:31;8.65;;;4.13;;
79646;SDS011;69119;41.718;21.786;2023-07-09T07:45:57;7.07;;;4.13;;
79646;SDS011;69119;41.718;21.786;2023-07-09T07:48:23;10.32;;;4.28;;
79646;SDS011;69119;41.718;21.786;2023-07-09T07:50:49;10.45;;;5.22;;
79646;SDS011;69119;41.718;21.786;2023-07-09T07:53:15;8.32;;;5.55;;
79646;SDS011;69119;41.718;21.786;2023-07-09T07:55:42;7.78;;;4.32;;
79646;SDS011;69119;41.718;21.786;2023-07-09T07:58:11;5.93;;;3.47;;
79646;SDS011;69119;41.718;21.786;2023-07-09T08:00:38;6.53;;;2.85;;
79646;SDS011;69119;41.718;21.786;2023-07-09T08:03:04;8.15;;;3.70;;
79646;SDS011;69119;41.718;21.786;2023-07-09T08:05:30;7.47;;;3.60;;
79646;SDS011;69119;41.718;21.786;2023-07-09T08:07:56;7.22;;;3.45;;
79646;SDS011;69119;41.718;21.786;2023-07-09T08:10:22;7.85;;;3.28;;
79646;SDS011;69119;41.718;21.786;2023-07-09T08:12:48;9.40;;;4.10;;
79646;SDS011;69119;41.718;21.786;2023-07-09T08:15:14;7.38;;;4.45;;
79646;SDS011;69119;41.718;21.786;2023-07-09T08:17:41;6.13;;;3.35;;
79646;SDS011;69119;41.718;21.786;2023-07-09T08:20:07;9.55;;;3.25;;
79646;SDS011;69119;41.718;21.786;2023-07-09T08:22:34;8.05;;;3.42;;
79646;SDS011;69119;41.718;21.786;2023-07-09T08:25:00;6.78;;;3.00;;
79646;SDS011;69119;41.718;21.786;2023-07-09T08:27:26;8.27;;;4.90;;
79646;SDS011;69119;41.718;21.786;2023-07-09T08:29:52;9.10;;;2.60;;
79646;SDS011;69119;41.718;21.786;2023-07-09T08:32:18;7.32;;;3.20;;
79646;SDS011;69119;41.718;21.786;2023-07-09T08:34:44;5.80;;;2.17;;
79646;SDS011;69119;41.718;21.786;2023-07-09T08:37:10;9.07;;;2.83;;
79646;SDS011;69119;41.718;21.786;2023-07-09T08:39:36;6.22;;;3.10;;
79646;SDS011;69119;41.718;21.786;2023-07-09T08:42:07;7.07;;;2.20;;
79646;SDS011;69119;41.718;21.786;2023-07-09T08:54:43;7.32;;;3.35;;
79646;SDS011;69119;41.718;21.786;2023-07-09T08:57:16;11.07;;;3.83;;
79646;SDS011;69119;41.718;21.786;2023-07-09T08:59:43;6.70;;;3.08;;
79646;SDS011;69119;41.718;21.786;2023-07-09T09:05:03;6.63;;;3.53;;
79646;SDS011;69119;41.718;21.786;2023-07-09T09:07:50;7.25;;;3.15;;
79646;SDS011;69119;41.718;21.786;2023-07-09T09:10:21;7.38;;;3.92;;
79646;SDS011;69119;41.718;21.786;2023-07-09T09:15:34;8.68;;;3.72;;
79646;SDS011;69119;41.718;21.786;2023-07-09T09:23:48;8.00;;;3.92;;
79646;SDS011;69119;41.718;21.786;2023-07-09T09:26:18;7.10;;;3.55;;
79646;SDS011;69119;41.718;21.786;2023-07-09T09:28:45;8.52;;;3.60;;
79646;SDS011;69119;41.718;21.786;2023-07-09T09:31:12;7.50;;;3.08;;
79646;SDS011;69119;41.718;21.786;2023-07-09T09:33:41;5.95;;;2.72;;
79646;SDS011;69119;41.718;21.786;2023-07-09T09:36:19;8.63;;;4.90;;
79646;SDS011;69119;41.718;21.786;2023-07-09T09:38:45;7.57;;;3.00;;
79646;SDS011;69119;41.718;21.786;2023-07-09T09:41:15;8.77;;;3.88;;
79646;SDS011;69119;41.718;21.786;2023-07-09T09:43:42;8.18;;;3.35;;
79646;SDS011;69119;41.718;21.786;2023-07-09T09:46:09;10.38;;;4.97;;
79646;SDS011;69119;41.718;21.786;2023-07-09T09:48:40;8.07;;;3.47;;
79646;SDS011;69119;41.718;21.786;2023-07-09T09:51:10;7.45;;;3.42;;
79646;SDS011;69119;41.718;21.786;2023-07-09T09:53:40;7.43;;;3.58;;
79646;SDS011;69119;41.718;21.786;2023-07-09T09:56:11;7.75;;;3.88;;
79646;SDS011;69119;41.718;21.786;2023-07-09T09:58:39;7.10;;;3.85;;
79646;SDS011;69119;41.718;21.786;2023-07-09T10:01:11;6.72;;;3.35;;
79646;SDS011;69119;41.718;21.786;2023-07-09T10:03:39;6.15;;;1.55;;
79646;SDS011;69119;41.718;21.786;2023-07-09T10:06:06;7.25;;;3.33;;
79646;SDS011;69119;41.718;21.786;2023-07-09T10:11:16;7.55;;;3.40;;
79646;SDS011;69119;41.718;21.786;2023-07-09T10:13:44;6.60;;;2.50;;
79646;SDS011;69119;41.718;21.786;2023-07-09T10:16:14;6.90;;;3.15;;
79646;SDS011;69119;41.718;21.786;2023-07-09T10:18:47;7.40;;;3.22;;
79646;SDS011;69119;41.718;21.786;2023-07-09T10:21:23;8.80;;;2.85;;
79646;SDS011;69119;41.718;21.786;2023-07-09T10:26:30;7.03;;;3.13;;
79646;SDS011;69119;41.718;21.786;2023-07-09T10:39:09;6.85;;;2.75;;
79646;SDS011;69119;41.718;21.786;2023-07-09T10:41:37;9.05;;;2.65;;
79646;SDS011;69119;41.718;21.786;2023-07-09T10:44:06;7.70;;;2.67;;
79646;SDS011;69119;41.718;21.786;2023-07-09T10:46:35;9.13;;;2.50;;
79646;SDS011;69119;41.718;21.786;2023-07-09T10:49:03;7.35;;;2.65;;
79646;SDS011;69119;41.718;21.786;2023-07-09T10:51:38;10.10;;;3.05;;
79646;SDS011;69119;41.718;21.786;2023-07-09T10:54:21;7.53;;;2.60;;
79646;SDS011;69119;41.718;21.786;2023-07-09T10:56:49;6.95;;;2.50;;
79646;SDS011;69119;41.718;21.786;2023-07-09T10:59:21;7.93;;;2.75;;
79646;SDS011;69119;41.718;21.786;2023-07-09T11:01:50;6.03;;;2.70;;
79646;SDS011;69119;41.718;21.786;2023-07-09T11:07:03;6.20;;;2.20;;
79646;SDS011;69119;41.718;21.786;2023-07-09T11:09:31;6.57;;;2.63;;
79646;SDS011;69119;41.718;21.786;2023-07-09T11:11:59;6.72;;;3.83;;
79646;SDS011;69119;41.718;21.786;2023-07-09T11:14:38;8.00;;;2.92;;
79646;SDS011;69119;41.718;21.786;2023-07-09T11:17:06;6.78;;;2.92;;
79646;SDS011;69119;41.718;21.786;2023-07-09T11:19:41;7.28;;;3.35;;
79646;SDS011;69119;41.718;21.786;2023-07-09T11:22:20;5.95;;;2.92;;
79646;SDS011;69119;41.718;21.786;2023-07-09T11:24:51;7.47;;;3.20;;
79646;SDS011;69119;41.718;21.786;2023-07-09T11:27:18;6.10;;;2.40;;
79646;SDS011;69119;41.718;21.786;2023-07-09T11:29:48;6.28;;;2.05;;
79646;SDS011;69119;41.718;21.786;2023-07-09T11:32:18;7.25;;;2.17;;
79646;SDS011;69119;41.718;21.786;2023-07-09T11:34:45;5.38;;;2.05;;
79646;SDS011;69119;41.718;21.786;2023-07-09T11:37:12;6.57;;;2.50;;
79646;SDS011;69119;41.718;21.786;2023-07-09T11:42:25;7.80;;;2.65;;
79646;SDS011;69119;41.718;21.786;2023-07-09T11:44:53;9.02;;;2.50;;
79646;SDS011;69119;41.718;21.786;2023-07-09T11:47:25;7.00;;;2.92;;
79646;SDS011;69119;41.718;21.786;2023-07-09T11:50:00;10.65;;;2.83;;
79646;SDS011;69119;41.718;21.786;2023-07-09T11:54:52;8.13;;;3.78;;
79646;SDS011;69119;41.718;21.786;2023-07-09T11:57:19;5.38;;;2.50;;
79646;SDS011;69119;41.718;21.786;2023-07-09T11:59:45;7.35;;;2.78;;
79646;SDS011;69119;41.718;21.786;2023-07-09T12:02:19;8.07;;;3.20;;
79646;SDS011;69119;41.718;21.786;2023-07-09T12:04:54;7.63;;;3.80;;
79646;SDS011;69119;41.718;21.786;2023-07-09T12:07:20;7.93;;;2.53;;
79646;SDS011;69119;41.718;21.786;2023-07-09T12:09:48;6.32;;;2.10;;
79646;SDS011;69119;41.718;21.786;2023-07-09T12:12:19;6.38;;;3.30;;
79646;SDS011;69119;41.718;21.786;2023-07-09T12:14:46;6.90;;;2.90;;
79646;SDS011;69119;41.718;21.786;2023-07-09T12:17:12;6.85;;;2.92;;
79646;SDS011;69119;41.718;21.786;2023-07-09T12:19:38;7.40;;;3.42;;
79646;SDS011;69119;41.718;21.786;2023-07-09T12:22:06;8.25;;;3.33;;
79646;SDS011;69119;41.718;21.786;2023-07-09T12:24:36;5.78;;;1.73;;
79646;SDS011;69119;41.718;21.786;2023-07-09T12:27:03;6.97;;;3.70;;
79646;SDS011;69119;41.718;21.786;2023-07-09T12:29:41;6.20;;;2.15;;
79646;SDS011;69119;41.718;21.786;2023-07-09T12:32:14;7.00;;;3.35;;
79646;SDS011;69119;41.718;21.786;2023-07-09T12:34:41;7.00;;;3.10;;
79646;SDS011;69119;41.718;21.786;2023-07-09T12:37:09;8.30;;;3.85;;
79646;SDS011;69119;41.718;21.786;2023-07-09T12:39:39;6.32;;;2.63;;
79646;SDS011;69119;41.718;21.786;2023-07-09T12:42:05;6.50;;;2.63;;
79646;SDS011;69119;41.718;21.786;2023-07-09T12:44:35;8.10;;;2.95;;
79646;SDS011;69119;41.718;21.786;2023-07-09T12:47:02;5.95;;;2.38;;
79646;SDS011;69119;41.718;21.786;2023-07-09T12:49:29;6.38;;;2.85;;
79646;SDS011;69119;41.718;21.786;2023-07-09T12:51:56;6.95;;;2.90;;
79646;SDS011;69119;41.718;21.786;2023-07-09T12:54:22;7.80;;;3.20;;
79646;SDS011;69119;41.718;21.786;2023-07-09T12:56:52;6.55;;;3.58;;
79646;SDS011;69119;41.718;21.786;2023-07-09T12:59:20;6.43;;;2.53;;
79646;SDS011;69119;41.718;21.786;2023-07-09T13:01:56;6.90;;;2.67;;
79646;SDS011;69119;41.718;21.786;2023-07-09T13:04:32;6.72;;;3.00;;
79646;SDS011;69119;41.718;21.786;2023-07-09T13:07:00;6.40;;;2.80;;
79646;SDS011;69119;41.718;21.786;2023-07-09T13:09:27;7.55;;;3.15;;
79646;SDS011;69119;41.718;21.786;2023-07-09T13:11:56;5.90;;;2.60;;
79646;SDS011;69119;41.718;21.786;2023-07-09T13:14:27;5.30;;;1.95;;
79646;SDS011;69119;41.718;21.786;2023-07-09T13:17:01;4.75;;;1.65;;
79646;SDS011;69119;41.718;21.786;2023-07-09T13:19:27;5.70;;;2.30;;
79646;SDS011;69119;41.718;21.786;2023-07-09T13:21:53;7.45;;;2.75;;
79646;SDS011;69119;41.718;21.786;2023-07-09T13:24:23;5.82;;;2.05;;
79646;SDS011;69119;41.718;21.786;2023-07-09T13:26:50;6.38;;;2.22;;
79646;SDS011;69119;41.718;21.786;2023-07-09T13:29:16;6.97;;;3.15;;
79646;SDS011;69119;41.718;21.786;2023-07-09T13:31:43;5.60;;;1.60;;
79646;SDS011;69119;41.718;21.786;2023-07-09T13:34:28;5.60;;;2.20;;
79646;SDS011;69119;41.718;21.786;2023-07-09T13:36:58;6.15;;;2.67;;
79646;SDS011;69119;41.718;21.786;2023-07-09T13:39:24;6.03;;;2.15;;
79646;SDS011;69119;41.718;21.786;2023-07-09T13:41:51;5.97;;;2.03;;
79646;SDS011;69119;41.718;21.786;2023-07-09T13:44:22;5.25;;;1.95;;
79646;SDS011;69119;41.718;21.786;2023-07-09T13:46:50;6.70;;;2.50;;
79646;SDS011;69119;41.718;21.786;2023-07-09T13:49:18;6.07;;;2.42;;
79646;SDS011;69119;41.718;21.786;2023-07-09T13:51:45;7.55;;;1.65;;
79646;SDS011;69119;41.718;21.786;2023-07-09T13:54:22;5.60;;;2.13;;
79646;SDS011;69119;41.718;21.786;2023-07-09T13:56:49;7.38;;;2.60;;
79646;SDS011;69119;41.718;21.786;2023-07-09T13:59:16;5.20;;;2.00;;
79646;SDS011;69119;41.718;21.786;2023-07-09T14:01:43;6.10;;;2.17;;
79646;SDS011;69119;41.718;21.786;2023-07-09T14:04:10;6.38;;;2.13;;
79646;SDS011;69119;41.718;21.786;2023-07-09T14:06:37;4.22;;;1.20;;
79646;SDS011;69119;41.718;21.786;2023-07-09T14:09:03;5.03;;;1.30;;
79646;SDS011;69119;41.718;21.786;2023-07-09T14:11:29;5.68;;;1.80;;
79646;SDS011;69119;41.718;21.786;2023-07-09T14:13:55;6.78;;;2.08;;
79646;SDS011;69119;41.718;21.786;2023-07-09T14:16:21;5.93;;;2.03;;
79646;SDS011;69119;41.718;21.786;2023-07-09T14:18:48;4.45;;;1.25;;
79646;SDS011;69119;41.718;21.786;2023-07-09T14:21:14;6.97;;;2.10;;
79646;SDS011;69119;41.718;21.786;2023-07-09T14:23:41;5.63;;;2.05;;
79646;SDS011;69119;41.718;21.786;2023-07-09T14:26:08;4.38;;;1.40;;
79646;SDS011;69119;41.718;21.786;2023-07-09T14:28:35;4.85;;;1.60;;
79646;SDS011;69119;41.718;21.786;2023-07-09T14:31:03;6.70;;;1.65;;
79646;SDS011;69119;41.718;21.786;2023-07-09T14:33:30;6.85;;;1.75;;
79646;SDS011;69119;41.718;21.786;2023-07-09T14:35:56;5.72;;;1.85;;
79646;SDS011;69119;41.718;21.786;2023-07-09T14:38:23;4.63;;;1.55;;
79646;SDS011;69119;41.718;21.786;2023-07-09T14:40:51;6.05;;;1.80;;
79646;SDS011;69119;41.718;21.786;2023-07-09T14:43:17;5.20;;;1.90;;
79646;SDS011;69119;41.718;21.786;2023-07-09T14:45:44;5.20;;;1.73;;
79646;SDS011;69119;41.718;21.786;2023-07-09T14:48:13;4.50;;;1.60;;
79646;SDS011;69119;41.718;21.786;2023-07-09T14:50:40;5.15;;;1.33;;
79646;SDS011;69119;41.718;21.786;2023-07-09T14:53:13;4.45;;;1.27;;
79646;SDS011;69119;41.718;21.786;2023-07-09T14:55:40;4.50;;;1.38;;
79646;SDS011;69119;41.718;21.786;2023-07-09T14:58:22;3.92;;;1.08;;
79646;SDS011;69119;41.718;21.786;2023-07-09T15:00:48;5.15;;;1.58;;
79646;SDS011;69119;41.718;21.786;2023-07-09T15:03:17;4.20;;;1.20;;
79646;SDS011;69119;41.718;21.786;2023-07-09T15:05:44;5.35;;;1.30;;
79646;SDS011;69119;41.718;21.786;2023-07-09T15:08:13;6.07;;;1.20;;
79646;SDS011;69119;41.718;21.786;2023-07-09T15:10:40;5.32;;;1.33;;
79646;SDS011;69119;41.718;21.786;2023-07-09T15:13:10;4.35;;;1.17;;
79646;SDS011;69119;41.718;21.786;2023-07-09T15:15:37;5.07;;;1.60;;
79646;SDS011;69119;41.718;21.786;2023-07-09T15:18:08;5.35;;;2.15;;
79646;SDS011;69119;41.718;21.786;2023-07-09T15:20:35;7.43;;;1.90;;
79646;SDS011;69119;41.718;21.786;2023-07-09T15:23:02;4.15;;;1.13;;
79646;SDS011;69119;41.718;21.786;2023-07-09T15:25:28;5.22;;;1.52;;
79646;SDS011;69119;41.718;21.786;2023-07-09T15:27:56;4.35;;;1.20;;
79646;SDS011;69119;41.718;21.786;2023-07-09T15:30:23;6.15;;;1.48;;
79646;SDS011;69119;41.718;21.786;2023-07-09T15:32:50;5.90;;;2.10;;
79646;SDS011;69119;41.718;21.786;2023-07-09T15:35:17;4.88;;;1.45;;
79646;SDS011;69119;41.718;21.786;2023-07-09T15:37:44;5.25;;;1.40;;
79646;SDS011;69119;41.718;21.786;2023-07-09T15:40:19;6.22;;;1.85;;
79646;SDS011;69119;41.718;21.786;2023-07-09T15:42:49;5.03;;;1.80;;
79646;SDS011;69119;41.718;21.786;2023-07-09T15:45:16;4.07;;;1.17;;